sensor_id;sensor_type;location;lat;lon;timestamp;temperature;humidity
21023;DHT22;10669;51.076;3.714;2022-09-09T00:06:33;16.30;89.30
21023;DHT22;10669;51.076;3.714;2022-09-09T00:09:08;16.20;89.80
21023;DHT22;10669;51.076;3.714;2022-09-09T00:11:43;16.20;89.90
21023;DHT22;10669;51.076;3.714;2022-09-09T00:14:39;16.20;90.30
21023;DHT22;10669;51.076;3.714;2022-09-09T00:20:29;16.20;89.70
21023;DHT22;10669;51.076;3.714;2022-09-09T00:26:02;16.30;89.60
21023;DHT22;10669;51.076;3.714;2022-09-09T00:28:32;16.30;87.80
21023;DHT22;10669;51.076;3.714;2022-09-09T00:31:12;16.30;81.60
21023;DHT22;10669;51.076;3.714;2022-09-09T00:33:39;16.30;84.10
21023;DHT22;10669;51.076;3.714;2022-09-09T00:36:12;16.40;79.70
21023;DHT22;10669;51.076;3.714;2022-09-09T00:38:46;16.40;77.60
21023;DHT22;10669;51.076;3.714;2022-09-09T00:43:57;16.20;78.40
21023;DHT22;10669;51.076;3.714;2022-09-09T00:49:43;16.20;83.20
21023;DHT22;10669;51.076;3.714;2022-09-09T00:52:40;16.20;81.40
21023;DHT22;10669;51.076;3.714;2022-09-09T00:58:01;16.10;86.10
21023;DHT22;10669;51.076;3.714;2022-09-09T01:00:42;16.10;88.00
21023;DHT22;10669;51.076;3.714;2022-09-09T01:11:04;16.00;88.00
21023;DHT22;10669;51.076;3.714;2022-09-09T01:13:34;16.00;88.50
21023;DHT22;10669;51.076;3.714;2022-09-09T01:16:08;15.90;91.00
21023;DHT22;10669;51.076;3.714;2022-09-09T01:18:40;15.90;91.00
21023;DHT22;10669;51.076;3.714;2022-09-09T01:23:45;15.80;93.10
21023;DHT22;10669;51.076;3.714;2022-09-09T01:28:47;15.80;92.60
21023;DHT22;10669;51.076;3.714;2022-09-09T01:31:23;15.90;92.10
21023;DHT22;10669;51.076;3.714;2022-09-09T01:33:51;15.80;91.90
21023;DHT22;10669;51.076;3.714;2022-09-09T01:36:38;15.80;92.90
21023;DHT22;10669;51.076;3.714;2022-09-09T01:39:05;15.90;91.50
21023;DHT22;10669;51.076;3.714;2022-09-09T01:41:30;15.90;91.00
21023;DHT22;10669;51.076;3.714;2022-09-09T01:43:56;15.90;90.10
21023;DHT22;10669;51.076;3.714;2022-09-09T01:46:22;15.80;90.00
21023;DHT22;10669;51.076;3.714;2022-09-09T01:48:52;15.80;90.50
21023;DHT22;10669;51.076;3.714;2022-09-09T01:51:19;15.80;91.60
21023;DHT22;10669;51.076;3.714;2022-09-09T01:53:46;15.80;92.00
21023;DHT22;10669;51.076;3.714;2022-09-09T01:59:27;15.80;89.90
21023;DHT22;10669;51.076;3.714;2022-09-09T02:02:26;15.70;90.70
21023;DHT22;10669;51.076;3.714;2022-09-09T02:07:49;15.70;90.30
21023;DHT22;10669;51.076;3.714;2022-09-09T02:10:30;15.70;92.40
21023;DHT22;10669;51.076;3.714;2022-09-09T02:13:12;15.80;92.10
21023;DHT22;10669;51.076;3.714;2022-09-09T02:18:13;15.70;91.20
21023;DHT22;10669;51.076;3.714;2022-09-09T02:20:39;15.70;91.60
21023;DHT22;10669;51.076;3.714;2022-09-09T02:23:07;15.70;92.70
21023;DHT22;10669;51.076;3.714;2022-09-09T02:25:36;15.70;94.20
21023;DHT22;10669;51.076;3.714;2022-09-09T02:28:05;15.80;95.10
21023;DHT22;10669;51.076;3.714;2022-09-09T02:30:34;15.70;95.00
21023;DHT22;10669;51.076;3.714;2022-09-09T02:33:04;15.70;95.90
21023;DHT22;10669;51.076;3.714;2022-09-09T02:35:32;15.80;96.30
21023;DHT22;10669;51.076;3.714;2022-09-09T02:38:06;15.70;95.50
21023;DHT22;10669;51.076;3.714;2022-09-09T02:40:33;15.80;95.90
21023;DHT22;10669;51.076;3.714;2022-09-09T02:42:59;15.80;95.50
21023;DHT22;10669;51.076;3.714;2022-09-09T02:45:29;15.80;95.00
21023;DHT22;10669;51.076;3.714;2022-09-09T02:50:45;15.80;96.10
21023;DHT22;10669;51.076;3.714;2022-09-09T02:56:04;15.70;95.70
21023;DHT22;10669;51.076;3.714;2022-09-09T02:58:31;15.80;96.60
21023;DHT22;10669;51.076;3.714;2022-09-09T03:00:57;15.70;96.90
21023;DHT22;10669;51.076;3.714;2022-09-09T03:03:23;15.70;97.90
21023;DHT22;10669;51.076;3.714;2022-09-09T03:05:49;15.70;97.80
21023;DHT22;10669;51.076;3.714;2022-09-09T03:08:17;15.70;98.00
21023;DHT22;10669;51.076;3.714;2022-09-09T03:10:42;15.70;99.30
21023;DHT22;10669;51.076;3.714;2022-09-09T03:13:08;15.70;99.50
21023;DHT22;10669;51.076;3.714;2022-09-09T03:15:34;15.70;98.90
21023;DHT22;10669;51.076;3.714;2022-09-09T03:18:00;15.70;99.20
21023;DHT22;10669;51.076;3.714;2022-09-09T03:20:28;15.70;99.00
21023;DHT22;10669;51.076;3.714;2022-09-09T03:22:56;15.70;99.10
21023;DHT22;10669;51.076;3.714;2022-09-09T03:25:22;15.70;98.10
21023;DHT22;10669;51.076;3.714;2022-09-09T03:27:53;15.70;98.40
21023;DHT22;10669;51.076;3.714;2022-09-09T03:30:22;15.80;98.50
21023;DHT22;10669;51.076;3.714;2022-09-09T03:32:47;15.70;98.50
21023;DHT22;10669;51.076;3.714;2022-09-09T03:35:13;15.80;98.70
21023;DHT22;10669;51.076;3.714;2022-09-09T03:37:40;15.80;98.00
21023;DHT22;10669;51.076;3.714;2022-09-09T03:40:07;15.80;97.40
21023;DHT22;10669;51.076;3.714;2022-09-09T03:42:38;15.80;96.70
21023;DHT22;10669;51.076;3.714;2022-09-09T03:45:09;15.90;96.40
21023;DHT22;10669;51.076;3.714;2022-09-09T03:47:36;15.90;95.10
21023;DHT22;10669;51.076;3.714;2022-09-09T03:50:02;15.90;94.20
21023;DHT22;10669;51.076;3.714;2022-09-09T03:52:29;15.90;94.50
21023;DHT22;10669;51.076;3.714;2022-09-09T03:54:56;15.90;94.30
21023;DHT22;10669;51.076;3.714;2022-09-09T03:57:22;15.90;94.30
21023;DHT22;10669;51.076;3.714;2022-09-09T03:59:48;16.00;93.80
21023;DHT22;10669;51.076;3.714;2022-09-09T04:02:14;15.90;94.10
21023;DHT22;10669;51.076;3.714;2022-09-09T04:04:40;15.90;93.60
21023;DHT22;10669;51.076;3.714;2022-09-09T04:07:06;16.00;93.70
21023;DHT22;10669;51.076;3.714;2022-09-09T04:09:33;15.90;92.40
21023;DHT22;10669;51.076;3.714;2022-09-09T04:12:00;15.80;93.40
21023;DHT22;10669;51.076;3.714;2022-09-09T04:14:25;15.80;94.10
21023;DHT22;10669;51.076;3.714;2022-09-09T04:16:55;15.80;93.50
21023;DHT22;10669;51.076;3.714;2022-09-09T04:19:23;15.90;94.20
21023;DHT22;10669;51.076;3.714;2022-09-09T04:21:49;15.80;93.30
21023;DHT22;10669;51.076;3.714;2022-09-09T04:24:16;15.80;94.00
21023;DHT22;10669;51.076;3.714;2022-09-09T04:26:43;15.90;95.00
21023;DHT22;10669;51.076;3.714;2022-09-09T04:29:09;15.90;94.70
21023;DHT22;10669;51.076;3.714;2022-09-09T04:31:35;16.00;93.80
21023;DHT22;10669;51.076;3.714;2022-09-09T04:34:01;15.90;93.30
21023;DHT22;10669;51.076;3.714;2022-09-09T04:36:32;15.90;93.30
21023;DHT22;10669;51.076;3.714;2022-09-09T04:38:59;15.90;94.20
21023;DHT22;10669;51.076;3.714;2022-09-09T04:41:25;15.90;92.90
21023;DHT22;10669;51.076;3.714;2022-09-09T04:43:51;15.90;93.30
21023;DHT22;10669;51.076;3.714;2022-09-09T04:46:19;15.90;93.10
21023;DHT22;10669;51.076;3.714;2022-09-09T04:48:45;15.90;93.40
21023;DHT22;10669;51.076;3.714;2022-09-09T04:51:13;15.90;92.60
21023;DHT22;10669;51.076;3.714;2022-09-09T04:53:42;15.90;93.70
21023;DHT22;10669;51.076;3.714;2022-09-09T04:56:13;15.90;93.10
21023;DHT22;10669;51.076;3.714;2022-09-09T04:58:41;15.90;93.40
21023;DHT22;10669;51.076;3.714;2022-09-09T05:01:14;15.90;93.60
21023;DHT22;10669;51.076;3.714;2022-09-09T05:03:41;15.90;93.50
21023;DHT22;10669;51.076;3.714;2022-09-09T05:06:12;15.90;93.50
21023;DHT22;10669;51.076;3.714;2022-09-09T05:08:40;15.80;94.70
21023;DHT22;10669;51.076;3.714;2022-09-09T05:11:21;15.80;95.80
21023;DHT22;10669;51.076;3.714;2022-09-09T05:13:52;15.80;95.60
21023;DHT22;10669;51.076;3.714;2022-09-09T05:16:20;15.80;95.10
21023;DHT22;10669;51.076;3.714;2022-09-09T05:18:46;15.80;95.70
21023;DHT22;10669;51.076;3.714;2022-09-09T05:21:14;15.80;95.10
21023;DHT22;10669;51.076;3.714;2022-09-09T05:23:40;15.80;96.00
21023;DHT22;10669;51.076;3.714;2022-09-09T05:26:08;15.90;97.50
21023;DHT22;10669;51.076;3.714;2022-09-09T05:28:35;15.90;99.40
21023;DHT22;10669;51.076;3.714;2022-09-09T05:31:05;15.90;99.90
21023;DHT22;10669;51.076;3.714;2022-09-09T05:33:34;15.80;99.90
21023;DHT22;10669;51.076;3.714;2022-09-09T05:36:05;15.80;99.90
21023;DHT22;10669;51.076;3.714;2022-09-09T05:38:34;15.80;99.90
21023;DHT22;10669;51.076;3.714;2022-09-09T05:41:01;15.80;99.90
21023;DHT22;10669;51.076;3.714;2022-09-09T05:43:28;15.80;99.90
21023;DHT22;10669;51.076;3.714;2022-09-09T05:46:06;15.80;99.90
21023;DHT22;10669;51.076;3.714;2022-09-09T05:48:38;15.80;99.90
21023;DHT22;10669;51.076;3.714;2022-09-09T05:51:05;15.80;99.90
21023;DHT22;10669;51.076;3.714;2022-09-09T05:53:34;15.90;99.90
21023;DHT22;10669;51.076;3.714;2022-09-09T05:56:09;16.00;99.90
21023;DHT22;10669;51.076;3.714;2022-09-09T05:58:45;16.00;99.90
21023;DHT22;10669;51.076;3.714;2022-09-09T06:01:17;16.10;99.90
21023;DHT22;10669;51.076;3.714;2022-09-09T06:03:45;16.00;99.90
21023;DHT22;10669;51.076;3.714;2022-09-09T06:06:13;16.00;99.90
21023;DHT22;10669;51.076;3.714;2022-09-09T06:08:41;15.90;99.90
21023;DHT22;10669;51.076;3.714;2022-09-09T06:11:19;15.90;99.90
21023;DHT22;10669;51.076;3.714;2022-09-09T06:13:45;16.00;99.90
21023;DHT22;10669;51.076;3.714;2022-09-09T06:16:14;16.00;99.90
21023;DHT22;10669;51.076;3.714;2022-09-09T06:18:41;15.90;99.90
21023;DHT22;10669;51.076;3.714;2022-09-09T06:21:11;15.80;99.90
21023;DHT22;10669;51.076;3.714;2022-09-09T06:23:40;15.70;99.90
21023;DHT22;10669;51.076;3.714;2022-09-09T06:26:11;15.70;99.90
21023;DHT22;10669;51.076;3.714;2022-09-09T06:28:38;15.80;99.90
21023;DHT22;10669;51.076;3.714;2022-09-09T06:31:12;15.80;99.90
21023;DHT22;10669;51.076;3.714;2022-09-09T06:33:39;15.80;99.90
21023;DHT22;10669;51.076;3.714;2022-09-09T06:36:10;15.80;99.90
21023;DHT22;10669;51.076;3.714;2022-09-09T06:38:38;15.90;99.90
21023;DHT22;10669;51.076;3.714;2022-09-09T06:41:04;15.90;99.90
21023;DHT22;10669;51.076;3.714;2022-09-09T06:43:32;15.80;99.90
21023;DHT22;10669;51.076;3.714;2022-09-09T06:45:59;15.90;99.90
21023;DHT22;10669;51.076;3.714;2022-09-09T06:48:26;16.00;99.90
21023;DHT22;10669;51.076;3.714;2022-09-09T06:51:04;16.10;99.90
21023;DHT22;10669;51.076;3.714;2022-09-09T06:53:32;16.10;99.90
21023;DHT22;10669;51.076;3.714;2022-09-09T06:56:21;16.20;99.90
21023;DHT22;10669;51.076;3.714;2022-09-09T06:58:50;16.30;99.90
21023;DHT22;10669;51.076;3.714;2022-09-09T07:01:21;16.30;99.90
21023;DHT22;10669;51.076;3.714;2022-09-09T07:03:51;16.30;99.90
21023;DHT22;10669;51.076;3.714;2022-09-09T07:06:27;16.40;99.90
21023;DHT22;10669;51.076;3.714;2022-09-09T07:09:07;16.50;99.90
21023;DHT22;10669;51.076;3.714;2022-09-09T07:11:39;16.40;99.90
21023;DHT22;10669;51.076;3.714;2022-09-09T07:14:07;16.50;99.90
21023;DHT22;10669;51.076;3.714;2022-09-09T07:16:33;16.60;99.90
21023;DHT22;10669;51.076;3.714;2022-09-09T07:19:03;16.50;99.90
21023;DHT22;10669;51.076;3.714;2022-09-09T07:21:30;16.50;99.90
21023;DHT22;10669;51.076;3.714;2022-09-09T07:23:56;16.50;99.90
21023;DHT22;10669;51.076;3.714;2022-09-09T07:26:25;16.60;99.90
21023;DHT22;10669;51.076;3.714;2022-09-09T07:28:51;16.70;99.90
21023;DHT22;10669;51.076;3.714;2022-09-09T07:31:19;16.80;99.90
21023;DHT22;10669;51.076;3.714;2022-09-09T07:33:47;17.00;99.90
21023;DHT22;10669;51.076;3.714;2022-09-09T07:36:16;17.20;99.90
21023;DHT22;10669;51.076;3.714;2022-09-09T07:38:48;17.20;99.90
21023;DHT22;10669;51.076;3.714;2022-09-09T07:41:17;17.20;99.90
21023;DHT22;10669;51.076;3.714;2022-09-09T07:43:45;17.30;99.90
21023;DHT22;10669;51.076;3.714;2022-09-09T07:46:12;17.30;99.90
21023;DHT22;10669;51.076;3.714;2022-09-09T07:48:50;17.20;99.90
21023;DHT22;10669;51.076;3.714;2022-09-09T07:51:23;17.20;99.90
21023;DHT22;10669;51.076;3.714;2022-09-09T07:53:53;17.10;99.90
21023;DHT22;10669;51.076;3.714;2022-09-09T07:56:20;17.00;99.90
21023;DHT22;10669;51.076;3.714;2022-09-09T07:58:50;16.90;99.90
21023;DHT22;10669;51.076;3.714;2022-09-09T08:01:25;16.80;99.90
21023;DHT22;10669;51.076;3.714;2022-09-09T08:06:29;16.70;99.90
21023;DHT22;10669;51.076;3.714;2022-09-09T08:08:56;16.70;99.90
21023;DHT22;10669;51.076;3.714;2022-09-09T08:11:24;16.50;99.90
21023;DHT22;10669;51.076;3.714;2022-09-09T08:13:51;16.60;99.90
21023;DHT22;10669;51.076;3.714;2022-09-09T08:16:23;16.50;99.90
21023;DHT22;10669;51.076;3.714;2022-09-09T08:18:51;16.50;99.90
21023;DHT22;10669;51.076;3.714;2022-09-09T08:21:22;16.50;99.90
21023;DHT22;10669;51.076;3.714;2022-09-09T08:23:51;16.40;99.90
21023;DHT22;10669;51.076;3.714;2022-09-09T08:26:38;16.40;99.90
21023;DHT22;10669;51.076;3.714;2022-09-09T08:29:07;16.40;99.90
21023;DHT22;10669;51.076;3.714;2022-09-09T08:31:37;16.40;99.90
21023;DHT22;10669;51.076;3.714;2022-09-09T08:34:06;16.40;99.90
21023;DHT22;10669;51.076;3.714;2022-09-09T08:36:36;16.40;99.90
21023;DHT22;10669;51.076;3.714;2022-09-09T08:39:04;16.40;99.90
21023;DHT22;10669;51.076;3.714;2022-09-09T08:50:36;16.50;99.90
21023;DHT22;10669;51.076;3.714;2022-09-09T08:53:38;16.50;99.90
21023;DHT22;10669;51.076;3.714;2022-09-09T08:56:13;16.40;99.90
21023;DHT22;10669;51.076;3.714;2022-09-09T08:58:45;16.50;99.90
21023;DHT22;10669;51.076;3.714;2022-09-09T09:04:07;16.50;99.90
21023;DHT22;10669;51.076;3.714;2022-09-09T09:06:54;16.60;99.90
21023;DHT22;10669;51.076;3.714;2022-09-09T09:09:55;16.70;99.90
21023;DHT22;10669;51.076;3.714;2022-09-09T09:12:28;16.70;99.90
21023;DHT22;10669;51.076;3.714;2022-09-09T09:14:55;16.70;99.90
21023;DHT22;10669;51.076;3.714;2022-09-09T09:17:25;16.70;99.90
21023;DHT22;10669;51.076;3.714;2022-09-09T09:19:53;16.70;99.90
21023;DHT22;10669;51.076;3.714;2022-09-09T09:22:50;16.80;99.90
21023;DHT22;10669;51.076;3.714;2022-09-09T09:25:23;16.90;99.90
21023;DHT22;10669;51.076;3.714;2022-09-09T09:31:04;17.30;99.90
21023;DHT22;10669;51.076;3.714;2022-09-09T09:35:53;17.40;99.90
21023;DHT22;10669;51.076;3.714;2022-09-09T09:38:25;17.50;99.90
21023;DHT22;10669;51.076;3.714;2022-09-09T09:40:55;17.60;99.90
21023;DHT22;10669;51.076;3.714;2022-09-09T09:43:40;17.60;99.90
21023;DHT22;10669;51.076;3.714;2022-09-09T09:46:20;17.60;99.90
21023;DHT22;10669;51.076;3.714;2022-09-09T09:49:05;17.50;99.90
21023;DHT22;10669;51.076;3.714;2022-09-09T09:51:34;17.60;99.90
21023;DHT22;10669;51.076;3.714;2022-09-09T09:56:41;17.50;99.90
21023;DHT22;10669;51.076;3.714;2022-09-09T09:59:20;17.40;99.90
21023;DHT22;10669;51.076;3.714;2022-09-09T10:01:46;17.50;99.90
21023;DHT22;10669;51.076;3.714;2022-09-09T10:04:19;17.60;99.90
21023;DHT22;10669;51.076;3.714;2022-09-09T10:06:46;17.60;99.90
21023;DHT22;10669;51.076;3.714;2022-09-09T10:09:29;17.60;99.90
21023;DHT22;10669;51.076;3.714;2022-09-09T10:15:01;17.50;99.90
21023;DHT22;10669;51.076;3.714;2022-09-09T10:17:50;17.70;99.90
21023;DHT22;10669;51.076;3.714;2022-09-09T10:23:10;17.80;99.90
21023;DHT22;10669;51.076;3.714;2022-09-09T10:28:47;18.10;99.90
21023;DHT22;10669;51.076;3.714;2022-09-09T10:36:57;18.10;99.90
21023;DHT22;10669;51.076;3.714;2022-09-09T10:42:14;18.30;99.90
21023;DHT22;10669;51.076;3.714;2022-09-09T10:47:58;18.50;99.90
21023;DHT22;10669;51.076;3.714;2022-09-09T10:55:53;18.60;99.90
21023;DHT22;10669;51.076;3.714;2022-09-09T10:58:27;18.40;99.90
21023;DHT22;10669;51.076;3.714;2022-09-09T11:00:57;18.30;99.90
21023;DHT22;10669;51.076;3.714;2022-09-09T11:03:28;18.40;99.90
21023;DHT22;10669;51.076;3.714;2022-09-09T11:06:08;18.50;99.90
21023;DHT22;10669;51.076;3.714;2022-09-09T11:08:38;18.80;99.90
21023;DHT22;10669;51.076;3.714;2022-09-09T11:11:24;18.90;99.90
21023;DHT22;10669;51.076;3.714;2022-09-09T11:16:39;19.00;99.90
21023;DHT22;10669;51.076;3.714;2022-09-09T11:21:48;19.50;99.90
21023;DHT22;10669;51.076;3.714;2022-09-09T11:24:38;19.70;99.90
21023;DHT22;10669;51.076;3.714;2022-09-09T11:27:19;19.80;99.90
21023;DHT22;10669;51.076;3.714;2022-09-09T11:40:38;19.30;99.90
21023;DHT22;10669;51.076;3.714;2022-09-09T11:43:12;19.50;99.90
21023;DHT22;10669;51.076;3.714;2022-09-09T11:45:41;19.70;99.90
21023;DHT22;10669;51.076;3.714;2022-09-09T11:48:36;19.80;99.90
21023;DHT22;10669;51.076;3.714;2022-09-09T11:54:00;19.80;99.90
21023;DHT22;10669;51.076;3.714;2022-09-09T11:56:49;19.70;99.90
21023;DHT22;10669;51.076;3.714;2022-09-09T11:59:31;19.50;99.90
21023;DHT22;10669;51.076;3.714;2022-09-09T12:02:14;19.60;99.90
21023;DHT22;10669;51.076;3.714;2022-09-09T12:04:54;19.60;99.90
21023;DHT22;10669;51.076;3.714;2022-09-09T12:07:45;19.80;99.90
21023;DHT22;10669;51.076;3.714;2022-09-09T12:10:26;20.00;99.90
21023;DHT22;10669;51.076;3.714;2022-09-09T12:12:52;20.20;99.90
21023;DHT22;10669;51.076;3.714;2022-09-09T12:15:22;20.30;99.90
21023;DHT22;10669;51.076;3.714;2022-09-09T12:17:53;20.30;99.90
21023;DHT22;10669;51.076;3.714;2022-09-09T12:20:23;20.20;99.90
21023;DHT22;10669;51.076;3.714;2022-09-09T12:23:45;20.40;99.90
21023;DHT22;10669;51.076;3.714;2022-09-09T12:27:17;20.40;99.90
21023;DHT22;10669;51.076;3.714;2022-09-09T12:29:44;20.60;99.90
21023;DHT22;10669;51.076;3.714;2022-09-09T12:32:21;20.80;99.90
21023;DHT22;10669;51.076;3.714;2022-09-09T12:42:50;20.60;99.90
21023;DHT22;10669;51.076;3.714;2022-09-09T12:45:23;20.30;99.90
21023;DHT22;10669;51.076;3.714;2022-09-09T12:48:08;20.20;99.90
21023;DHT22;10669;51.076;3.714;2022-09-09T12:50:43;20.30;99.90
21023;DHT22;10669;51.076;3.714;2022-09-09T12:53:32;20.40;99.90
21023;DHT22;10669;51.076;3.714;2022-09-09T12:56:04;20.20;99.90
21023;DHT22;10669;51.076;3.714;2022-09-09T12:58:32;20.10;99.90
21023;DHT22;10669;51.076;3.714;2022-09-09T13:00:59;20.00;99.90
21023;DHT22;10669;51.076;3.714;2022-09-09T13:03:27;20.10;99.90
21023;DHT22;10669;51.076;3.714;2022-09-09T13:05:56;20.20;99.90
21023;DHT22;10669;51.076;3.714;2022-09-09T13:08:25;20.20;99.90
21023;DHT22;10669;51.076;3.714;2022-09-09T13:13:26;20.20;99.90
21023;DHT22;10669;51.076;3.714;2022-09-09T13:16:01;20.30;99.90
21023;DHT22;10669;51.076;3.714;2022-09-09T13:18:34;20.60;99.90
21023;DHT22;10669;51.076;3.714;2022-09-09T13:21:02;20.60;99.90
21023;DHT22;10669;51.076;3.714;2022-09-09T13:23:33;20.80;99.90
21023;DHT22;10669;51.076;3.714;2022-09-09T13:26:06;20.90;99.90
21023;DHT22;10669;51.076;3.714;2022-09-09T13:28:45;21.10;99.90
21023;DHT22;10669;51.076;3.714;2022-09-09T13:33:49;21.50;99.90
21023;DHT22;10669;51.076;3.714;2022-09-09T13:36:15;21.70;99.90
21023;DHT22;10669;51.076;3.714;2022-09-09T13:38:54;21.60;99.90
21023;DHT22;10669;51.076;3.714;2022-09-09T13:41:28;21.60;99.90
21023;DHT22;10669;51.076;3.714;2022-09-09T13:43:55;21.70;99.90
21023;DHT22;10669;51.076;3.714;2022-09-09T13:48:59;21.80;99.90
21023;DHT22;10669;51.076;3.714;2022-09-09T13:51:42;21.80;99.90
21023;DHT22;10669;51.076;3.714;2022-09-09T13:54:13;21.70;99.90
21023;DHT22;10669;51.076;3.714;2022-09-09T13:56:41;21.70;99.90
21023;DHT22;10669;51.076;3.714;2022-09-09T13:59:16;21.50;99.90
21023;DHT22;10669;51.076;3.714;2022-09-09T14:01:42;21.30;99.90
21023;DHT22;10669;51.076;3.714;2022-09-09T14:04:08;21.20;99.90
21023;DHT22;10669;51.076;3.714;2022-09-09T14:06:35;21.20;99.90
21023;DHT22;10669;51.076;3.714;2022-09-09T14:09:04;21.00;99.90
21023;DHT22;10669;51.076;3.714;2022-09-09T14:11:30;20.90;99.90
21023;DHT22;10669;51.076;3.714;2022-09-09T14:13:55;20.90;99.90
21023;DHT22;10669;51.076;3.714;2022-09-09T14:16:21;20.70;99.90
21023;DHT22;10669;51.076;3.714;2022-09-09T14:18:47;20.70;99.90
21023;DHT22;10669;51.076;3.714;2022-09-09T14:21:14;20.60;99.90
21023;DHT22;10669;51.076;3.714;2022-09-09T14:23:41;20.60;99.90
21023;DHT22;10669;51.076;3.714;2022-09-09T14:26:08;20.80;99.90
21023;DHT22;10669;51.076;3.714;2022-09-09T14:28:36;20.90;99.90
21023;DHT22;10669;51.076;3.714;2022-09-09T14:31:04;21.20;99.90
21023;DHT22;10669;51.076;3.714;2022-09-09T14:33:30;21.60;99.90
21023;DHT22;10669;51.076;3.714;2022-09-09T14:36:01;21.90;99.90
21023;DHT22;10669;51.076;3.714;2022-09-09T14:38:32;22.00;99.90
21023;DHT22;10669;51.076;3.714;2022-09-09T14:40:59;22.20;99.90
21023;DHT22;10669;51.076;3.714;2022-09-09T14:43:25;22.30;99.90
21023;DHT22;10669;51.076;3.714;2022-09-09T14:45:52;22.20;99.90
21023;DHT22;10669;51.076;3.714;2022-09-09T14:48:17;21.80;99.90
21023;DHT22;10669;51.076;3.714;2022-09-09T14:50:43;21.40;99.90
21023;DHT22;10669;51.076;3.714;2022-09-09T14:53:10;20.50;99.90
21023;DHT22;10669;51.076;3.714;2022-09-09T14:55:36;19.50;99.90
21023;DHT22;10669;51.076;3.714;2022-09-09T14:58:04;18.70;99.90
21023;DHT22;10669;51.076;3.714;2022-09-09T15:00:32;18.50;99.90
21023;DHT22;10669;51.076;3.714;2022-09-09T15:02:58;18.30;99.90
21023;DHT22;10669;51.076;3.714;2022-09-09T15:05:24;18.60;99.90
21023;DHT22;10669;51.076;3.714;2022-09-09T15:07:50;18.60;99.90
21023;DHT22;10669;51.076;3.714;2022-09-09T15:10:17;19.00;99.90
21023;DHT22;10669;51.076;3.714;2022-09-09T15:12:44;19.30;99.90
21023;DHT22;10669;51.076;3.714;2022-09-09T15:15:11;19.60;99.90
21023;DHT22;10669;51.076;3.714;2022-09-09T15:17:39;19.80;99.90
21023;DHT22;10669;51.076;3.714;2022-09-09T15:20:05;20.00;99.90
21023;DHT22;10669;51.076;3.714;2022-09-09T15:22:32;20.10;99.90
21023;DHT22;10669;51.076;3.714;2022-09-09T15:24:59;20.20;99.90
21023;DHT22;10669;51.076;3.714;2022-09-09T15:27:26;20.30;99.90
21023;DHT22;10669;51.076;3.714;2022-09-09T15:29:52;20.40;99.90
21023;DHT22;10669;51.076;3.714;2022-09-09T15:32:18;20.40;99.90
21023;DHT22;10669;51.076;3.714;2022-09-09T15:34:44;20.30;99.90
21023;DHT22;10669;51.076;3.714;2022-09-09T15:37:11;20.10;99.90
21023;DHT22;10669;51.076;3.714;2022-09-09T15:39:40;20.10;99.90
21023;DHT22;10669;51.076;3.714;2022-09-09T15:42:07;20.20;99.90
21023;DHT22;10669;51.076;3.714;2022-09-09T15:44:41;20.20;99.90
21023;DHT22;10669;51.076;3.714;2022-09-09T15:47:11;20.20;99.90
21023;DHT22;10669;51.076;3.714;2022-09-09T15:49:43;20.20;99.90
21023;DHT22;10669;51.076;3.714;2022-09-09T15:52:12;20.20;99.90
21023;DHT22;10669;51.076;3.714;2022-09-09T15:54:39;20.40;99.90
21023;DHT22;10669;51.076;3.714;2022-09-09T15:57:06;20.70;99.90
21023;DHT22;10669;51.076;3.714;2022-09-09T15:59:33;20.80;99.90
21023;DHT22;10669;51.076;3.714;2022-09-09T16:02:02;21.10;99.90
21023;DHT22;10669;51.076;3.714;2022-09-09T16:04:28;21.10;99.90
21023;DHT22;10669;51.076;3.714;2022-09-09T16:06:59;21.30;99.90
21023;DHT22;10669;51.076;3.714;2022-09-09T16:09:29;21.30;99.90
21023;DHT22;10669;51.076;3.714;2022-09-09T16:11:59;21.60;99.90
21023;DHT22;10669;51.076;3.714;2022-09-09T16:14:28;22.20;99.90
21023;DHT22;10669;51.076;3.714;2022-09-09T16:16:59;22.40;99.90
21023;DHT22;10669;51.076;3.714;2022-09-09T16:19:27;22.80;1.00
21023;DHT22;10669;51.076;3.714;2022-09-09T16:21:53;23.20;99.90
21023;DHT22;10669;51.076;3.714;2022-09-09T16:24:20;23.30;1.00
21023;DHT22;10669;51.076;3.714;2022-09-09T16:26:51;23.80;1.00
21023;DHT22;10669;51.076;3.714;2022-09-09T16:29:19;24.20;99.90
21023;DHT22;10669;51.076;3.714;2022-09-09T16:31:48;24.30;99.90
21023;DHT22;10669;51.076;3.714;2022-09-09T16:34:17;23.60;26.00
21023;DHT22;10669;51.076;3.714;2022-09-09T16:36:44;22.90;33.80
21023;DHT22;10669;51.076;3.714;2022-09-09T16:39:14;23.00;99.90
21023;DHT22;10669;51.076;3.714;2022-09-09T16:41:43;23.50;99.90
21023;DHT22;10669;51.076;3.714;2022-09-09T16:44:12;23.40;1.00
21023;DHT22;10669;51.076;3.714;2022-09-09T16:46:40;23.30;1.00
21023;DHT22;10669;51.076;3.714;2022-09-09T16:49:12;23.00;1.00
21023;DHT22;10669;51.076;3.714;2022-09-09T16:51:41;22.60;99.90
21023;DHT22;10669;51.076;3.714;2022-09-09T16:54:08;22.30;99.90
21023;DHT22;10669;51.076;3.714;2022-09-09T16:56:36;21.90;1.00
21023;DHT22;10669;51.076;3.714;2022-09-09T16:59:08;21.60;1.00
21023;DHT22;10669;51.076;3.714;2022-09-09T17:01:36;21.50;1.00
21023;DHT22;10669;51.076;3.714;2022-09-09T17:04:08;21.40;1.00
21023;DHT22;10669;51.076;3.714;2022-09-09T17:06:35;21.30;1.00
21023;DHT22;10669;51.076;3.714;2022-09-09T17:09:04;21.10;1.00
21023;DHT22;10669;51.076;3.714;2022-09-09T17:11:30;21.10;1.00
21023;DHT22;10669;51.076;3.714;2022-09-09T17:13:57;20.90;1.00
21023;DHT22;10669;51.076;3.714;2022-09-09T17:16:26;20.80;1.00
21023;DHT22;10669;51.076;3.714;2022-09-09T17:18:53;20.70;1.00
21023;DHT22;10669;51.076;3.714;2022-09-09T17:21:22;20.60;1.00
21023;DHT22;10669;51.076;3.714;2022-09-09T17:23:49;20.50;1.00
21023;DHT22;10669;51.076;3.714;2022-09-09T17:26:17;20.40;1.00
21023;DHT22;10669;51.076;3.714;2022-09-09T17:28:43;20.20;1.00
21023;DHT22;10669;51.076;3.714;2022-09-09T17:31:12;20.00;1.00
21023;DHT22;10669;51.076;3.714;2022-09-09T17:33:40;20.00;1.00
21023;DHT22;10669;51.076;3.714;2022-09-09T17:36:15;20.10;1.00
21023;DHT22;10669;51.076;3.714;2022-09-09T17:38:41;20.10;1.00
21023;DHT22;10669;51.076;3.714;2022-09-09T17:41:25;19.90;1.00
21023;DHT22;10669;51.076;3.714;2022-09-09T17:43:51;19.90;1.00
21023;DHT22;10669;51.076;3.714;2022-09-09T17:46:19;19.90;1.00
21023;DHT22;10669;51.076;3.714;2022-09-09T17:48:48;19.50;1.00
21023;DHT22;10669;51.076;3.714;2022-09-09T17:51:25;19.50;1.00
21023;DHT22;10669;51.076;3.714;2022-09-09T17:53:56;19.20;1.00
21023;DHT22;10669;51.076;3.714;2022-09-09T17:56:25;19.20;1.00
21023;DHT22;10669;51.076;3.714;2022-09-09T17:58:52;19.30;1.00
21023;DHT22;10669;51.076;3.714;2022-09-09T18:01:26;19.30;1.00
21023;DHT22;10669;51.076;3.714;2022-09-09T18:03:55;19.40;1.00
21023;DHT22;10669;51.076;3.714;2022-09-09T18:06:27;19.50;1.00